Airfield :
LOGIN :

Register | Disclaimer

   EN    FR    IT 

 










Legend :    VFR   Marginal VFR   IFR   Intensive IFR   Very Intensive IFR
Visi :
Ceiling :
>= 8 km
>= 3000ft
5 to 8 km
1000 to 3000 ft
1500m to 5 km
500 to 1000 ft
800 to 1500m
200 to 500 ft
< 800m
< 200 ft
Symbols :   Thunderstorms  Fog  Heavy snow  Heavy precipitations  Wind > 20 kt
SIGMETs :     Misc.  Thunderstorms  Icing  Turbulence  Mountain Waves  Volcanic Ashes







- Airport Elevation : 1649 ft
- IATA code : HHN


EDFH - Frankfurt-Hahn Rhineland-Palatinate

CURRENT METAR :
  • 231350Z 32007KT 9999 FEW025 BKN030 13/07 Q1026

EXPIRED METARs :
  • 231320Z 34010KT 9999 FEW025 BKN030 13/07 Q1027
  • 231250Z 34008KT 310V010 9999 BKN030 13/07 Q1026
  • 231220Z 31007KT 270V340 9999 BKN032 13/06 Q1027
  • 231150Z 33006KT 260V360 9999 SCT032 13/06 Q1027
  • 231120Z 32005KT 280V010 9999 SCT030 14/06 Q1027

TAF TAF EDFH
Valid from the 23 at 12:00 until the 24 at 12:00 UTC


231100Z 2312/2412 32007KT 9999 BKN030
TEMPO 2320/2408 VRB03KT
No reported NOTAMs for that airfield.



MET'MAP, your aeronautical weather chart ! - Copyright ORBIFLY December 2007 - Disclaimer

ORBIFLY MET'MAP TEAM :

Programming & Development : Alexandra Zaïnal
Concept & Development : Baudouin d'Aumeries
Co-Development & Prog : Marc-Olivier Méhu
Technical & hardware support : Manuel Goepfert

Contact : metmap@orbifly.com




SOURCES & CREDITS :

   NOAA